Terminal Aerodrome Forecast
Issued by NWS

Home | Current Version | Previous Version | Text Only | Print | Product List | Glossary Off
Versions: 1 2 3 4 5 6 7 8 9 10 11 12 13 14 15 16 17 18 19 20 21 22 23

000
FTUS43 KBIS 021505 AAA
TAFJMS
TAF AMD
KJMS 021505Z 0215/0312 20004KT P6SM BKN010
     FM021700 19005KT P6SM SCT020
     FM022100 32007KT P6SM VCTS BKN050CB
     FM030300 35004KT P6SM SKC=

USA.gov is the U.S. government's official web portal to all federal, state and local government web resources and services.